createdAt,value
2019-02-09T00:01:23.505Z,8.21
2019-02-09T00:03:52.081Z,8.21
2019-02-09T00:06:20.631Z,8.23
2019-02-09T00:08:49.233Z,8.21
2019-02-09T00:11:17.773Z,8.22
2019-02-09T00:13:46.310Z,8.26
2019-02-09T00:16:14.881Z,8.29
2019-02-09T00:18:43.418Z,8.21
2019-02-09T00:21:11.998Z,8.23
2019-02-09T00:23:40.542Z,8.24
2019-02-09T00:26:09.111Z,8.22
2019-02-09T00:28:37.684Z,8.24
2019-02-09T00:31:06.247Z,8.26
2019-02-09T00:33:35.467Z,8.29
2019-02-09T00:36:04.035Z,8.21
2019-02-09T00:38:32.587Z,8.17
2019-02-09T00:41:01.982Z,8.27
2019-02-09T00:43:31.970Z,8.31
2019-02-09T00:46:00.857Z,8.29
2019-02-09T00:48:29.436Z,8.26
2019-02-09T00:50:58.795Z,8.23
2019-02-09T00:53:28.191Z,8.26
2019-02-09T00:55:56.770Z,8.25
2019-02-09T00:58:25.307Z,8.27
2019-02-09T01:00:53.843Z,8.28
2019-02-09T01:03:22.718Z,8.31
2019-02-09T01:05:51.333Z,8.28
2019-02-09T01:08:19.905Z,8.31
2019-02-09T01:10:48.440Z,8.14
2019-02-09T01:13:16.984Z,7.99
2019-02-09T01:15:45.564Z,7.87
2019-02-09T01:18:14.393Z,7.95
2019-02-09T01:20:43.290Z,7.91
2019-02-09T01:23:11.900Z,7.82
2019-02-09T01:25:40.443Z,7.81
2019-02-09T01:28:09.011Z,7.74
2019-02-09T01:30:37.983Z,7.87
2019-02-09T01:33:06.594Z,7.96
2019-02-09T01:35:35.530Z,7.80
2019-02-09T01:38:04.074Z,7.69
2019-02-09T01:40:32.655Z,7.54
2019-02-09T01:43:01.194Z,7.48
2019-02-09T01:45:30.543Z,7.56
2019-02-09T01:47:59.152Z,7.59
2019-02-09T01:50:29.160Z,7.58
2019-02-09T01:52:57.726Z,7.54
2019-02-09T01:55:27.206Z,7.44
2019-02-09T01:57:55.748Z,7.36
2019-02-09T02:00:26.160Z,7.32
2019-02-09T02:02:55.783Z,7.31
2019-02-09T02:08:35.033Z,7.32
2019-02-09T02:11:06.998Z,7.31
2019-02-09T02:13:39.324Z,7.23
2019-02-09T02:16:07.862Z,7.20
2019-02-09T02:18:36.452Z,7.27
2019-02-09T02:21:05.013Z,7.16
2019-02-09T02:23:33.543Z,7.09
2019-02-09T02:26:02.126Z,7.04
2019-02-09T02:28:30.672Z,7.03
2019-02-09T02:30:59.240Z,6.96
2019-02-09T02:33:27.804Z,6.88
2019-02-09T02:35:56.723Z,6.79
2019-02-09T02:38:25.270Z,6.75
2019-02-09T02:40:53.850Z,6.70
2019-02-09T02:43:22.392Z,6.73
2019-02-09T02:45:50.979Z,6.68
2019-02-09T02:48:19.528Z,6.60
2019-02-09T02:50:48.101Z,6.54
2019-02-09T02:53:16.734Z,6.64
2019-02-09T02:55:45.303Z,6.60
2019-02-09T02:58:13.839Z,6.50
2019-02-09T03:00:42.406Z,6.53
2019-02-09T03:03:10.984Z,6.46
2019-02-09T03:05:39.533Z,6.47
2019-02-09T03:08:08.085Z,6.44
2019-02-09T03:10:36.663Z,6.51
2019-02-09T03:13:05.234Z,6.44
2019-02-09T03:15:33.814Z,6.42
2019-02-09T03:18:02.404Z,6.42
2019-02-09T03:20:30.950Z,6.38
2019-02-09T03:22:59.834Z,6.39
2019-02-09T03:25:32.715Z,6.36
2019-02-09T03:28:01.260Z,6.34
2019-02-09T03:30:30.200Z,6.35
2019-02-09T03:32:59.111Z,6.26
2019-02-09T03:35:27.692Z,6.36
2019-02-09T03:37:57.262Z,6.36
2019-02-09T03:40:26.474Z,6.35
2019-02-09T03:42:55.834Z,6.26
2019-02-09T03:45:29.774Z,6.21
2019-02-09T03:47:59.492Z,6.22
2019-02-09T03:50:30.404Z,6.15
2019-02-09T03:52:59.259Z,6.16
2019-02-09T03:55:51.837Z,6.11
2019-02-09T03:59:21.164Z,6.09
2019-02-09T04:02:22.224Z,6.02
2019-02-09T04:08:13.769Z,6.02
2019-02-09T04:11:12.179Z,6.07
2019-02-09T04:17:48.755Z,5.99
2019-02-09T04:20:22.063Z,5.95
2019-02-09T04:23:08.890Z,6.04
2019-02-09T04:25:59.943Z,6.05
2019-02-09T04:28:40.027Z,6.01
2019-02-09T04:31:10.672Z,6.05
2019-02-09T04:33:44.680Z,6.10
2019-02-09T04:36:33.077Z,6.08
2019-02-09T04:39:10.047Z,6.07
2019-02-09T04:41:56.683Z,6.07
2019-02-09T04:44:28.226Z,6.10
2019-02-09T04:46:57.045Z,6.16
2019-02-09T04:49:28.631Z,6.08
2019-02-09T04:51:57.522Z,6.15
2019-02-09T04:54:26.395Z,6.17
2019-02-09T04:56:55.699Z,6.37
2019-02-09T04:59:27.091Z,6.36
2019-02-09T05:01:57.734Z,6.38
2019-02-09T05:04:29.429Z,6.43
2019-02-09T05:06:58.425Z,6.45
2019-02-09T05:09:27.630Z,6.47
2019-02-09T05:11:58.005Z,6.40
2019-02-09T05:14:29.196Z,6.33
2019-02-09T05:16:58.911Z,6.38
2019-02-09T05:19:29.133Z,6.29
2019-02-09T05:22:01.223Z,6.29
2019-02-09T05:24:30.257Z,6.30
2019-02-09T05:27:04.971Z,6.28
2019-02-09T05:29:39.223Z,6.33
2019-02-09T05:32:09.866Z,6.33
2019-02-09T05:34:48.503Z,6.36
2019-02-09T05:37:17.374Z,6.37
2019-02-09T05:39:57.444Z,6.39
2019-02-09T05:42:29.462Z,6.45
2019-02-09T05:45:02.608Z,6.47
2019-02-09T05:48:12.653Z,6.61
2019-02-09T05:51:35.410Z,6.62
2019-02-09T05:54:28.146Z,6.61
2019-02-09T05:57:55.524Z,6.65
2019-02-09T06:05:54.032Z,6.69
2019-02-09T06:09:40.131Z,6.60
2019-02-09T06:13:27.170Z,6.67
2019-02-09T06:20:51.885Z,6.88
2019-02-09T06:24:43.646Z,6.74
2019-02-09T06:42:44.757Z,7.43
2019-02-09T06:45:27.478Z,7.57
2019-02-09T06:51:47.719Z,7.31
2019-02-09T06:54:25.825Z,7.17
2019-02-09T06:57:22.561Z,7.19
2019-02-09T07:00:04.350Z,7.12
2019-02-09T07:03:01.001Z,7.16
2019-02-09T07:05:35.813Z,7.10
2019-02-09T07:08:05.568Z,7.12
2019-02-09T07:10:44.615Z,7.18
2019-02-09T07:13:38.874Z,7.22
2019-02-09T07:16:38.665Z,7.28
2019-02-09T07:23:45.632Z,7.28
2019-02-09T07:26:22.257Z,7.25
2019-02-09T07:32:44.028Z,7.40
2019-02-09T07:36:12.955Z,7.45
2019-02-09T07:38:41.532Z,7.38
2019-02-09T07:41:10.087Z,7.41
2019-02-09T07:43:38.660Z,7.38
2019-02-09T07:46:07.601Z,7.37
2019-02-09T07:48:36.469Z,7.48
2019-02-09T07:51:05.037Z,7.66
2019-02-09T07:53:33.619Z,7.80
2019-02-09T07:56:03.024Z,7.78
2019-02-09T07:58:33.185Z,7.84
2019-02-09T08:01:01.872Z,7.93
2019-02-09T08:03:35.756Z,7.87
2019-02-09T08:06:04.610Z,8.01
2019-02-09T08:08:33.849Z,8.07
2019-02-09T08:11:09.056Z,8.07
2019-02-09T08:13:33.389Z,7.97
2019-02-09T08:16:02.586Z,8.04
2019-02-09T08:18:31.490Z,8.09
2019-02-09T08:21:00.376Z,8.11
2019-02-09T08:23:29.652Z,8.12
2019-02-09T08:26:01.807Z,8.21
2019-02-09T08:28:30.448Z,8.17
2019-02-09T08:30:58.995Z,8.04
2019-02-09T08:33:27.906Z,7.90
2019-02-09T08:35:56.486Z,7.88
2019-02-09T08:38:25.056Z,7.93
2019-02-09T08:40:53.645Z,7.88
2019-02-09T08:43:22.197Z,7.73
2019-02-09T08:45:53.492Z,7.76
2019-02-09T08:48:26.951Z,7.81
2019-02-09T08:51:00.414Z,7.85
2019-02-09T08:53:33.676Z,7.93
2019-02-09T08:56:02.791Z,8.12
2019-02-09T08:58:31.364Z,8.25
2019-02-09T09:01:00.545Z,8.34
2019-02-09T09:03:30.221Z,8.38
2019-02-09T09:06:13.117Z,8.43
2019-02-09T09:12:13.730Z,8.58
2019-02-09T09:15:40.983Z,8.50
2019-02-09T09:19:13.540Z,8.56
2019-02-09T09:22:54.775Z,8.49
2019-02-09T09:29:10.654Z,8.60
2019-02-09T09:31:39.194Z,8.76
2019-02-09T09:34:07.769Z,9.02
2019-02-09T09:36:36.333Z,8.89
2019-02-09T09:39:08.158Z,8.82
2019-02-09T10:10:51.152Z,9.55
2019-02-09T10:13:19.722Z,9.49
2019-02-09T10:15:48.305Z,9.55
2019-02-09T10:18:17.148Z,9.56
2019-02-09T10:20:45.688Z,9.32
2019-02-09T10:23:14.275Z,9.24
2019-02-09T10:25:42.894Z,10.06
2019-02-09T10:28:12.834Z,10.03
2019-02-09T10:30:41.403Z,9.81
2019-02-09T10:33:09.955Z,10.01
2019-02-09T10:35:38.499Z,10.08
2019-02-09T10:38:07.099Z,10.16
2019-02-09T10:40:35.675Z,10.32
2019-02-09T10:43:04.847Z,10.91
2019-02-09T10:45:33.406Z,10.04
2019-02-09T10:48:02.014Z,9.94
2019-02-09T10:50:35.536Z,9.91
2019-02-09T10:53:04.539Z,9.93
2019-02-09T10:55:33.129Z,10.02
2019-02-09T10:58:01.674Z,10.23
2019-02-09T11:00:33.476Z,10.02
2019-02-09T11:03:02.092Z,10.10
2019-02-09T11:05:30.644Z,10.12
2019-02-09T11:07:59.217Z,10.01
2019-02-09T11:10:27.834Z,10.00
2019-02-09T11:12:56.387Z,10.27
2019-02-09T11:15:24.936Z,10.68
2019-02-09T11:17:53.514Z,10.86
2019-02-09T11:20:22.418Z,10.81
2019-02-09T11:22:50.996Z,11.18
2019-02-09T11:25:19.964Z,11.49
2019-02-09T11:27:48.823Z,11.05
2019-02-09T11:30:20.464Z,11.28
2019-02-09T11:32:49.814Z,10.95
2019-02-09T11:35:19.561Z,10.75
2019-02-09T11:37:49.310Z,10.80
2019-02-09T11:40:19.570Z,10.41
2019-02-09T11:42:48.983Z,10.62
2019-02-09T11:45:20.677Z,10.61
2019-02-09T11:47:51.453Z,10.45
2019-02-09T11:50:20.073Z,10.36
2019-02-09T11:52:48.992Z,10.73
2019-02-09T11:55:17.947Z,10.96
2019-02-09T11:57:47.427Z,10.89
2019-02-09T12:00:25.523Z,11.05
2019-02-09T12:03:02.080Z,11.37
2019-02-09T12:05:24.767Z,11.68
2019-02-09T12:07:53.781Z,11.59
2019-02-09T12:10:22.373Z,11.56
2019-02-09T12:12:51.316Z,10.92
2019-02-09T12:15:26.347Z,10.80
2019-02-09T12:17:55.289Z,11.24
2019-02-09T12:20:23.866Z,11.38
2019-02-09T12:22:52.452Z,11.90
2019-02-09T12:25:24.215Z,11.54
2019-02-09T12:27:53.544Z,11.23
2019-02-09T12:30:23.726Z,11.84
2019-02-09T12:32:52.303Z,11.61
2019-02-09T12:35:21.109Z,10.61
2019-02-09T12:37:50.250Z,11.16
2019-02-09T12:40:21.563Z,10.94
2019-02-09T12:42:50.923Z,10.73
2019-02-09T12:45:20.968Z,10.66
2019-02-09T12:47:50.316Z,10.27
2019-02-09T12:50:20.155Z,10.78
2019-02-09T12:52:48.709Z,10.88
2019-02-09T12:55:17.321Z,10.78
2019-02-09T12:57:45.900Z,10.98
2019-02-09T13:00:17.702Z,11.76
2019-02-09T13:02:46.282Z,10.92
2019-02-09T13:05:14.830Z,10.55
2019-02-09T13:07:43.696Z,10.48
2019-02-09T13:10:12.291Z,10.49
2019-02-09T13:12:40.915Z,10.46
2019-02-09T13:15:12.380Z,10.42
2019-02-09T13:17:41.279Z,10.40
2019-02-09T13:20:13.368Z,10.34
2019-02-09T13:22:41.953Z,10.29
2019-02-09T13:25:10.590Z,10.36
2019-02-09T13:27:39.143Z,10.53
2019-02-09T13:30:11.412Z,10.55
2019-02-09T13:32:40.676Z,11.28
2019-02-09T13:35:10.174Z,11.56
2019-02-09T13:37:39.171Z,11.27
2019-02-09T13:40:10.002Z,10.91
2019-02-09T13:42:38.549Z,10.90
2019-02-09T13:45:11.811Z,11.72
2019-02-09T13:47:39.630Z,12.02
2019-02-09T13:50:10.680Z,12.18
2019-02-09T13:52:40.382Z,12.31
2019-02-09T13:55:11.437Z,12.47
2019-02-09T13:57:40.939Z,11.79
2019-02-09T14:00:13.474Z,11.47
2019-02-09T14:02:42.328Z,11.44
2019-02-09T14:05:11.510Z,12.35
2019-02-09T14:07:40.563Z,11.54
2019-02-09T14:10:10.739Z,11.02
2019-02-09T14:12:39.708Z,11.35
2019-02-09T14:15:12.217Z,10.94
2019-02-09T14:17:41.143Z,11.28
2019-02-09T14:20:11.596Z,10.91
2019-02-09T14:22:40.873Z,10.63
2019-02-09T14:25:09.870Z,10.55
2019-02-09T14:27:38.910Z,10.05
2019-02-09T14:30:14.685Z,9.36
2019-02-09T14:32:44.542Z,8.98
2019-02-09T14:35:14.140Z,8.93
2019-02-09T14:37:43.713Z,8.89
2019-02-09T14:40:16.088Z,8.83
2019-02-09T14:42:44.631Z,8.71
2019-02-09T14:45:16.247Z,7.69
2019-02-09T14:47:44.881Z,7.64
2019-02-09T14:50:14.096Z,7.64
2019-02-09T14:52:42.703Z,8.15
2019-02-09T14:55:13.619Z,8.58
2019-02-09T14:57:42.160Z,8.48
2019-02-09T15:00:15.611Z,9.13
2019-02-09T15:02:53.341Z,10.16
2019-02-09T15:05:17.073Z,10.18
2019-02-09T15:07:46.977Z,10.00
2019-02-09T15:10:18.973Z,9.73
2019-02-09T15:12:48.616Z,10.08
2019-02-09T15:15:21.524Z,10.11
2019-02-09T15:17:50.866Z,9.94
2019-02-09T15:20:24.260Z,9.47
2019-02-09T15:22:54.454Z,9.37
2019-02-09T15:25:23.806Z,9.37
2019-02-09T15:27:53.460Z,9.15
2019-02-09T15:30:25.318Z,9.04
2019-02-09T15:32:55.088Z,9.09
2019-02-09T15:35:24.746Z,9.15
2019-02-09T15:37:54.457Z,9.01
2019-02-09T15:40:24.209Z,9.02
2019-02-09T15:42:53.877Z,9.17
2019-02-09T15:45:23.530Z,9.05
2019-02-09T15:47:52.522Z,9.06
2019-02-09T15:50:22.095Z,9.00
2019-02-09T15:52:51.881Z,9.04
2019-02-09T15:55:21.275Z,9.02
2019-02-09T15:57:50.920Z,8.96
2019-02-09T16:00:24.996Z,8.74
2019-02-09T16:02:55.586Z,8.96
2019-02-09T16:05:25.317Z,8.98
2019-02-09T16:07:54.985Z,9.12
2019-02-09T16:10:25.010Z,9.13
2019-02-09T16:12:54.381Z,9.04
2019-02-09T16:15:25.558Z,9.23
2019-02-09T16:17:54.998Z,9.30
2019-02-09T16:20:24.993Z,8.93
2019-02-09T16:22:54.618Z,8.78
2019-02-09T16:25:24.303Z,8.42
2019-02-09T16:27:54.036Z,8.40
2019-02-09T16:30:25.001Z,8.34
2019-02-09T16:32:54.695Z,8.18
2019-02-09T16:35:24.356Z,8.25
2019-02-09T16:37:53.793Z,8.18
2019-02-09T16:40:25.244Z,8.34
2019-02-09T16:42:54.948Z,8.54
2019-02-09T16:45:26.589Z,8.56
2019-02-09T16:47:55.826Z,8.28
2019-02-09T16:50:24.709Z,8.30
2019-02-09T16:52:53.282Z,8.15
2019-02-09T16:55:21.954Z,8.12
2019-02-09T16:57:52.728Z,8.30
2019-02-09T17:00:33.681Z,8.07
2019-02-09T17:03:03.379Z,8.20
2019-02-09T17:05:32.799Z,8.21
2019-02-09T17:08:02.525Z,8.06
2019-02-09T17:10:32.192Z,8.03
2019-02-09T17:13:01.735Z,7.93
2019-02-09T17:15:31.382Z,7.87
2019-02-09T17:18:00.715Z,7.81
2019-02-09T17:20:30.425Z,7.84
2019-02-09T17:23:01.496Z,7.93
2019-02-09T17:25:31.178Z,7.86
2019-02-09T17:28:01.013Z,7.87
2019-02-09T17:30:31.117Z,7.92
2019-02-09T17:33:01.116Z,7.81
2019-02-09T17:35:31.344Z,7.71
2019-02-09T17:38:00.623Z,7.71
2019-02-09T17:40:32.768Z,7.86
2019-02-09T17:43:02.372Z,7.66
2019-02-09T17:45:34.903Z,7.64
2019-02-09T17:48:04.524Z,7.55
2019-02-09T17:50:33.530Z,7.66
2019-02-09T17:53:03.046Z,7.45
2019-02-09T17:55:32.694Z,7.53
2019-02-09T17:58:02.338Z,7.54
2019-02-09T18:00:38.129Z,7.79
2019-02-09T18:03:06.680Z,7.98
2019-02-09T18:05:35.309Z,7.82
2019-02-09T18:08:03.889Z,8.02
2019-02-09T18:10:32.872Z,7.89
2019-02-09T18:13:02.130Z,7.89
2019-02-09T18:15:30.775Z,7.92
2019-02-09T18:17:59.510Z,7.94
2019-02-09T18:20:29.126Z,7.82
2019-02-09T18:22:58.761Z,7.80
2019-02-09T18:25:28.467Z,7.73
2019-02-09T18:27:58.057Z,7.75
2019-02-09T18:30:27.898Z,7.84
2019-02-09T18:32:57.507Z,7.88
2019-02-09T18:35:26.396Z,7.96
2019-02-09T18:37:55.034Z,7.74
2019-02-09T18:40:24.684Z,7.76
2019-02-09T18:42:53.494Z,7.82
2019-02-09T18:45:23.841Z,8.03
2019-02-09T18:47:52.384Z,7.95
2019-02-09T18:50:22.703Z,8.01
2019-02-09T18:52:51.359Z,8.01
2019-02-09T18:55:21.413Z,7.99
2019-02-09T18:57:49.952Z,7.92
2019-02-09T19:00:20.974Z,7.91
2019-02-09T19:02:49.513Z,7.91
2019-02-09T19:05:18.069Z,7.99
2019-02-09T19:07:46.644Z,8.18
2019-02-09T19:10:18.041Z,8.17
2019-02-09T19:12:46.580Z,8.13
2019-02-09T19:15:16.063Z,8.28
2019-02-09T19:17:44.632Z,8.13
2019-02-09T19:20:33.537Z,8.15
2019-02-09T19:23:02.100Z,8.16
2019-02-09T19:25:30.991Z,8.05
2019-02-09T19:27:59.628Z,8.11
2019-02-09T19:30:28.228Z,7.97
2019-02-09T19:32:56.770Z,8.04
2019-02-09T19:35:25.330Z,8.11
2019-02-09T19:37:54.146Z,8.03
2019-02-09T19:40:22.837Z,8.26
2019-02-09T19:42:51.382Z,8.23
2019-02-09T19:45:28.270Z,8.19
2019-02-09T19:47:56.813Z,8.27
2019-02-09T19:50:25.358Z,8.19
2019-02-09T19:52:53.939Z,8.21
2019-02-09T19:55:24.209Z,8.17
2019-02-09T19:57:53.110Z,8.04
2019-02-09T20:00:23.772Z,7.97
2019-02-09T20:02:52.319Z,8.04
2019-02-09T20:05:20.868Z,7.87
2019-02-09T20:07:49.765Z,8.05
2019-02-09T20:10:21.119Z,8.19
2019-02-09T20:12:49.738Z,8.16
2019-02-09T20:15:18.379Z,8.12
2019-02-09T20:17:46.947Z,8.18
2019-02-09T20:20:15.820Z,8.06
2019-02-09T20:22:44.359Z,8.29
2019-02-09T20:25:15.625Z,8.32
2019-02-09T20:27:44.210Z,8.43
2019-02-09T20:30:20.983Z,8.29
2019-02-09T20:32:49.603Z,8.25
2019-02-09T20:35:18.511Z,8.11
2019-02-09T20:37:47.060Z,8.29
2019-02-09T20:40:25.285Z,8.33
2019-02-09T20:43:01.541Z,8.49
2019-02-09T20:45:24.147Z,8.57
2019-02-09T20:47:52.720Z,8.48
2019-02-09T20:50:21.486Z,8.55
2019-02-09T20:52:50.027Z,8.38
2019-02-09T20:55:19.174Z,8.36
2019-02-09T20:57:47.746Z,8.40
2019-02-09T21:00:18.621Z,8.33
2019-02-09T21:02:47.346Z,8.37
2019-02-09T21:05:15.916Z,8.42
2019-02-09T21:07:44.806Z,8.47
2019-02-09T21:10:32.063Z,8.55
2019-02-09T21:13:00.603Z,8.67
2019-02-09T21:15:29.197Z,8.60
2019-02-09T21:17:57.804Z,8.68
2019-02-09T21:20:26.430Z,8.69
2019-02-09T21:22:54.981Z,8.85
2019-02-09T21:25:26.036Z,8.78
2019-02-09T21:27:54.667Z,8.81
2019-02-09T21:30:23.244Z,8.85
2019-02-09T21:32:51.853Z,8.84
2019-02-09T21:35:20.469Z,8.84
2019-02-09T21:37:49.026Z,8.76
2019-02-09T21:40:19.342Z,8.81
2019-02-09T21:42:47.925Z,8.72
2019-02-09T21:45:17.432Z,8.69
2019-02-09T21:47:46.360Z,8.68
2019-02-09T21:50:20.568Z,8.73
2019-02-09T21:52:49.134Z,8.76
2019-02-09T21:55:17.787Z,8.83
2019-02-09T21:57:46.439Z,8.68
2019-02-09T22:00:23.795Z,8.67
2019-02-09T22:02:52.376Z,8.71
2019-02-09T22:05:20.945Z,8.58
2019-02-09T22:07:49.527Z,8.59
2019-02-09T22:10:20.074Z,8.63
2019-02-09T22:12:48.716Z,8.57
2019-02-09T22:15:18.413Z,8.54
2019-02-09T22:17:46.986Z,8.58
2019-02-09T22:20:16.405Z,8.60
2019-02-09T22:22:44.946Z,8.47
2019-02-09T22:25:15.998Z,8.37
2019-02-09T22:27:45.094Z,8.33
2019-02-09T22:30:16.469Z,8.48
2019-02-09T22:32:45.170Z,8.45
2019-02-09T22:35:13.807Z,8.50
2019-02-09T22:37:42.382Z,8.47
2019-02-09T22:40:16.861Z,8.57
2019-02-09T22:42:45.510Z,8.52
2019-02-09T22:45:14.492Z,8.45
2019-02-09T22:47:43.034Z,8.43
2019-02-09T22:50:19.088Z,8.38
2019-02-09T22:52:45.476Z,8.32
2019-02-09T22:55:14.574Z,8.26
2019-02-09T22:57:43.154Z,8.21
2019-02-09T23:00:53.355Z,8.28
2019-02-09T23:03:49.173Z,8.25
2019-02-09T23:07:08.086Z,8.23
2019-02-09T23:09:36.653Z,8.34
2019-02-09T23:12:05.202Z,8.32
2019-02-09T23:14:33.794Z,8.36
2019-02-09T23:17:02.364Z,8.38
2019-02-09T23:19:30.927Z,8.22
2019-02-09T23:21:59.517Z,8.13
2019-02-09T23:24:28.068Z,8.07
2019-02-09T23:26:56.647Z,8.13
2019-02-09T23:29:25.199Z,8.12
2019-02-09T23:31:53.754Z,8.23
2019-02-09T23:34:22.329Z,8.18
2019-02-09T23:36:50.871Z,8.09
2019-02-09T23:39:19.438Z,8.10
2019-02-09T23:41:48.016Z,8.20
2019-02-09T23:44:16.562Z,7.99
2019-02-09T23:46:45.574Z,8.14
2019-02-09T23:49:14.221Z,8.12
2019-02-09T23:51:42.766Z,8.15
2019-02-09T23:54:11.308Z,8.03
2019-02-09T23:56:39.878Z,7.88
2019-02-09T23:59:08.440Z,7.98
